sensor_id;sensor_type;location;lat;lon;timestamp;P1;durP1;ratioP1;P2;durP2;ratioP2
68214;SDS011;55036;52.138;5.236;2023-06-24T00:02:27;7.03;;;5.55;;
68214;SDS011;55036;52.138;5.236;2023-06-24T00:04:54;7.22;;;5.90;;
68214;SDS011;55036;52.138;5.236;2023-06-24T00:07:26;7.38;;;5.88;;
68214;SDS011;55036;52.138;5.236;2023-06-24T00:09:53;7.32;;;5.25;;
68214;SDS011;55036;52.138;5.236;2023-06-24T00:12:20;6.32;;;5.72;;
68214;SDS011;55036;52.138;5.236;2023-06-24T00:14:47;7.88;;;6.05;;
68214;SDS011;55036;52.138;5.236;2023-06-24T00:17:14;7.70;;;6.05;;
68214;SDS011;55036;52.138;5.236;2023-06-24T00:19:42;7.10;;;5.63;;
68214;SDS011;55036;52.138;5.236;2023-06-24T00:22:12;8.48;;;5.75;;
68214;SDS011;55036;52.138;5.236;2023-06-24T00:24:41;6.38;;;5.68;;
68214;SDS011;55036;52.138;5.236;2023-06-24T00:27:09;7.07;;;5.88;;
68214;SDS011;55036;52.138;5.236;2023-06-24T00:29:35;7.10;;;6.18;;
68214;SDS011;55036;52.138;5.236;2023-06-24T00:32:02;6.90;;;6.20;;
68214;SDS011;55036;52.138;5.236;2023-06-24T00:34:29;7.75;;;5.88;;
68214;SDS011;55036;52.138;5.236;2023-06-24T00:36:56;6.97;;;5.57;;
68214;SDS011;55036;52.138;5.236;2023-06-24T00:39:23;6.68;;;5.95;;
68214;SDS011;55036;52.138;5.236;2023-06-24T00:41:50;6.60;;;5.93;;
68214;SDS011;55036;52.138;5.236;2023-06-24T01:22:18;6.82;;;5.82;;
68214;SDS011;55036;52.138;5.236;2023-06-24T01:25:37;6.57;;;5.78;;
68214;SDS011;55036;52.138;5.236;2023-06-24T01:31:29;8.10;;;5.78;;
68214;SDS011;55036;52.138;5.236;2023-06-24T01:34:02;7.90;;;6.15;;
68214;SDS011;55036;52.138;5.236;2023-06-24T01:36:47;5.93;;;5.32;;
68214;SDS011;55036;52.138;5.236;2023-06-24T01:39:37;6.55;;;5.53;;
68214;SDS011;55036;52.138;5.236;2023-06-24T01:42:32;6.72;;;5.50;;
68214;SDS011;55036;52.138;5.236;2023-06-24T01:45:03;8.23;;;6.15;;
68214;SDS011;55036;52.138;5.236;2023-06-24T01:47:33;8.63;;;5.97;;
68214;SDS011;55036;52.138;5.236;2023-06-24T01:50:01;6.82;;;6.13;;
68214;SDS011;55036;52.138;5.236;2023-06-24T01:52:30;7.30;;;5.82;;
68214;SDS011;55036;52.138;5.236;2023-06-24T01:54:58;6.00;;;5.38;;
68214;SDS011;55036;52.138;5.236;2023-06-24T01:57:26;7.18;;;5.68;;
68214;SDS011;55036;52.138;5.236;2023-06-24T01:59:55;7.32;;;5.55;;
68214;SDS011;55036;52.138;5.236;2023-06-24T02:02:22;8.75;;;5.55;;
68214;SDS011;55036;52.138;5.236;2023-06-24T02:04:53;7.97;;;5.88;;
68214;SDS011;55036;52.138;5.236;2023-06-24T02:07:20;8.45;;;6.15;;
68214;SDS011;55036;52.138;5.236;2023-06-24T02:09:48;8.27;;;6.10;;
68214;SDS011;55036;52.138;5.236;2023-06-24T02:12:17;10.93;;;5.68;;
68214;SDS011;55036;52.138;5.236;2023-06-24T02:14:45;8.02;;;5.82;;
68214;SDS011;55036;52.138;5.236;2023-06-24T02:17:12;6.97;;;5.72;;
68214;SDS011;55036;52.138;5.236;2023-06-24T02:19:39;7.60;;;6.15;;
68214;SDS011;55036;52.138;5.236;2023-06-24T02:22:08;6.93;;;6.05;;
68214;SDS011;55036;52.138;5.236;2023-06-24T02:24:36;7.30;;;6.18;;
68214;SDS011;55036;52.138;5.236;2023-06-24T02:27:05;7.43;;;5.90;;
68214;SDS011;55036;52.138;5.236;2023-06-24T02:29:33;6.68;;;5.80;;
68214;SDS011;55036;52.138;5.236;2023-06-24T02:32:02;7.30;;;5.88;;
68214;SDS011;55036;52.138;5.236;2023-06-24T02:34:29;8.07;;;6.00;;
68214;SDS011;55036;52.138;5.236;2023-06-24T02:36:55;6.78;;;6.07;;
68214;SDS011;55036;52.138;5.236;2023-06-24T02:39:22;7.88;;;6.35;;
68214;SDS011;55036;52.138;5.236;2023-06-24T02:41:49;8.18;;;6.07;;
68214;SDS011;55036;52.138;5.236;2023-06-24T02:44:16;7.82;;;5.85;;
68214;SDS011;55036;52.138;5.236;2023-06-24T02:46:43;8.82;;;5.78;;
68214;SDS011;55036;52.138;5.236;2023-06-24T02:49:13;7.30;;;6.30;;
68214;SDS011;55036;52.138;5.236;2023-06-24T02:51:41;9.52;;;6.63;;
68214;SDS011;55036;52.138;5.236;2023-06-24T02:54:08;7.57;;;6.22;;
68214;SDS011;55036;52.138;5.236;2023-06-24T02:56:37;8.13;;;6.40;;
68214;SDS011;55036;52.138;5.236;2023-06-24T02:59:09;8.27;;;6.00;;
68214;SDS011;55036;52.138;5.236;2023-06-24T03:01:36;7.35;;;6.35;;
68214;SDS011;55036;52.138;5.236;2023-06-24T03:04:06;7.90;;;6.50;;
68214;SDS011;55036;52.138;5.236;2023-06-24T03:06:33;9.55;;;6.78;;
68214;SDS011;55036;52.138;5.236;2023-06-24T03:09:02;9.35;;;6.80;;
68214;SDS011;55036;52.138;5.236;2023-06-24T03:11:30;9.40;;;7.03;;
68214;SDS011;55036;52.138;5.236;2023-06-24T03:13:57;10.50;;;6.32;;
68214;SDS011;55036;52.138;5.236;2023-06-24T03:16:24;7.43;;;5.93;;
68214;SDS011;55036;52.138;5.236;2023-06-24T03:18:51;7.80;;;6.43;;
68214;SDS011;55036;52.138;5.236;2023-06-24T03:21:17;8.48;;;6.43;;
68214;SDS011;55036;52.138;5.236;2023-06-24T03:23:44;9.30;;;5.88;;
68214;SDS011;55036;52.138;5.236;2023-06-24T03:26:11;8.57;;;6.55;;
68214;SDS011;55036;52.138;5.236;2023-06-24T03:28:37;6.82;;;5.80;;
68214;SDS011;55036;52.138;5.236;2023-06-24T03:31:05;7.97;;;6.47;;
68214;SDS011;55036;52.138;5.236;2023-06-24T03:33:31;7.25;;;6.35;;
68214;SDS011;55036;52.138;5.236;2023-06-24T03:35:58;7.35;;;5.90;;
68214;SDS011;55036;52.138;5.236;2023-06-24T03:38:25;8.48;;;6.45;;
68214;SDS011;55036;52.138;5.236;2023-06-24T03:40:51;6.85;;;6.15;;
68214;SDS011;55036;52.138;5.236;2023-06-24T03:43:18;8.73;;;6.32;;
68214;SDS011;55036;52.138;5.236;2023-06-24T03:45:45;9.02;;;6.60;;
68214;SDS011;55036;52.138;5.236;2023-06-24T03:48:12;7.05;;;5.97;;
68214;SDS011;55036;52.138;5.236;2023-06-24T03:50:39;9.43;;;6.68;;
68214;SDS011;55036;52.138;5.236;2023-06-24T03:53:05;8.73;;;6.20;;
68214;SDS011;55036;52.138;5.236;2023-06-24T03:55:32;7.82;;;6.43;;
68214;SDS011;55036;52.138;5.236;2023-06-24T03:57:59;7.60;;;6.68;;
68214;SDS011;55036;52.138;5.236;2023-06-24T04:00:26;8.63;;;6.47;;
68214;SDS011;55036;52.138;5.236;2023-06-24T04:02:53;8.43;;;6.35;;
68214;SDS011;55036;52.138;5.236;2023-06-24T04:05:20;6.93;;;5.78;;
68214;SDS011;55036;52.138;5.236;2023-06-24T04:07:51;8.57;;;5.85;;
68214;SDS011;55036;52.138;5.236;2023-06-24T04:10:18;8.88;;;6.07;;
68214;SDS011;55036;52.138;5.236;2023-06-24T04:12:45;8.48;;;6.20;;
68214;SDS011;55036;52.138;5.236;2023-06-24T04:15:12;7.63;;;6.30;;
68214;SDS011;55036;52.138;5.236;2023-06-24T04:17:39;8.40;;;6.65;;
68214;SDS011;55036;52.138;5.236;2023-06-24T04:20:06;8.85;;;6.22;;
68214;SDS011;55036;52.138;5.236;2023-06-24T04:22:38;8.02;;;6.50;;
68214;SDS011;55036;52.138;5.236;2023-06-24T04:25:06;8.25;;;6.05;;
68214;SDS011;55036;52.138;5.236;2023-06-24T04:27:34;7.95;;;6.18;;
68214;SDS011;55036;52.138;5.236;2023-06-24T04:30:02;8.05;;;6.20;;
68214;SDS011;55036;52.138;5.236;2023-06-24T04:32:30;8.25;;;5.93;;
68214;SDS011;55036;52.138;5.236;2023-06-24T04:34:57;8.00;;;6.07;;
68214;SDS011;55036;52.138;5.236;2023-06-24T04:37:30;8.90;;;5.82;;
68214;SDS011;55036;52.138;5.236;2023-06-24T04:39:57;8.13;;;5.60;;
68214;SDS011;55036;52.138;5.236;2023-06-24T04:42:23;7.28;;;6.47;;
68214;SDS011;55036;52.138;5.236;2023-06-24T04:44:50;7.47;;;5.93;;
68214;SDS011;55036;52.138;5.236;2023-06-24T04:47:17;9.55;;;6.05;;
68214;SDS011;55036;52.138;5.236;2023-06-24T04:49:44;7.07;;;6.05;;
68214;SDS011;55036;52.138;5.236;2023-06-24T04:52:11;7.10;;;5.60;;
68214;SDS011;55036;52.138;5.236;2023-06-24T04:54:38;7.63;;;5.80;;
68214;SDS011;55036;52.138;5.236;2023-06-24T04:57:08;6.60;;;5.82;;
68214;SDS011;55036;52.138;5.236;2023-06-24T04:59:35;6.45;;;5.82;;
68214;SDS011;55036;52.138;5.236;2023-06-24T05:02:04;7.70;;;6.10;;
68214;SDS011;55036;52.138;5.236;2023-06-24T05:04:31;7.65;;;5.43;;
68214;SDS011;55036;52.138;5.236;2023-06-24T05:06:57;6.95;;;5.78;;
68214;SDS011;55036;52.138;5.236;2023-06-24T05:09:24;7.53;;;6.00;;
68214;SDS011;55036;52.138;5.236;2023-06-24T05:11:51;6.03;;;5.40;;
68214;SDS011;55036;52.138;5.236;2023-06-24T05:14:18;7.72;;;5.85;;
68214;SDS011;55036;52.138;5.236;2023-06-24T05:16:44;6.75;;;5.28;;
68214;SDS011;55036;52.138;5.236;2023-06-24T05:19:11;8.75;;;5.55;;
68214;SDS011;55036;52.138;5.236;2023-06-24T05:21:38;7.55;;;5.65;;
68214;SDS011;55036;52.138;5.236;2023-06-24T05:24:05;8.27;;;5.80;;
68214;SDS011;55036;52.138;5.236;2023-06-24T05:26:32;10.68;;;5.80;;
68214;SDS011;55036;52.138;5.236;2023-06-24T05:28:58;8.32;;;6.00;;
68214;SDS011;55036;52.138;5.236;2023-06-24T05:31:25;10.70;;;5.93;;
68214;SDS011;55036;52.138;5.236;2023-06-24T05:33:52;7.63;;;5.60;;
68214;SDS011;55036;52.138;5.236;2023-06-24T05:36:19;6.43;;;5.05;;
68214;SDS011;55036;52.138;5.236;2023-06-24T05:38:45;7.53;;;4.90;;
68214;SDS011;55036;52.138;5.236;2023-06-24T05:41:14;6.32;;;4.93;;
68214;SDS011;55036;52.138;5.236;2023-06-24T05:43:44;8.63;;;5.20;;
68214;SDS011;55036;52.138;5.236;2023-06-24T05:46:11;5.72;;;4.63;;
68214;SDS011;55036;52.138;5.236;2023-06-24T05:48:38;7.05;;;5.07;;
68214;SDS011;55036;52.138;5.236;2023-06-24T05:51:05;6.72;;;5.03;;
68214;SDS011;55036;52.138;5.236;2023-06-24T05:53:31;7.07;;;4.82;;
68214;SDS011;55036;52.138;5.236;2023-06-24T05:55:58;6.35;;;4.47;;
68214;SDS011;55036;52.138;5.236;2023-06-24T05:58:25;7.03;;;5.15;;
68214;SDS011;55036;52.138;5.236;2023-06-24T06:00:52;5.45;;;4.35;;
68214;SDS011;55036;52.138;5.236;2023-06-24T06:03:18;8.95;;;4.68;;
68214;SDS011;55036;52.138;5.236;2023-06-24T06:05:45;7.97;;;4.80;;
68214;SDS011;55036;52.138;5.236;2023-06-24T06:08:12;6.00;;;4.28;;
68214;SDS011;55036;52.138;5.236;2023-06-24T06:10:39;5.35;;;4.30;;
68214;SDS011;55036;52.138;5.236;2023-06-24T06:13:05;5.80;;;3.63;;
68214;SDS011;55036;52.138;5.236;2023-06-24T06:15:32;6.53;;;3.80;;
68214;SDS011;55036;52.138;5.236;2023-06-24T06:17:59;5.88;;;3.75;;
68214;SDS011;55036;52.138;5.236;2023-06-24T06:20:26;5.80;;;3.97;;
68214;SDS011;55036;52.138;5.236;2023-06-24T06:22:53;10.27;;;4.35;;
68214;SDS011;55036;52.138;5.236;2023-06-24T06:25:20;5.35;;;3.80;;
68214;SDS011;55036;52.138;5.236;2023-06-24T06:27:46;4.40;;;3.67;;
68214;SDS011;55036;52.138;5.236;2023-06-24T06:30:13;6.45;;;4.28;;
68214;SDS011;55036;52.138;5.236;2023-06-24T06:32:40;6.78;;;3.60;;
68214;SDS011;55036;52.138;5.236;2023-06-24T06:35:07;5.22;;;3.65;;
68214;SDS011;55036;52.138;5.236;2023-06-24T06:37:34;6.50;;;4.10;;
68214;SDS011;55036;52.138;5.236;2023-06-24T06:40:01;6.93;;;3.63;;
68214;SDS011;55036;52.138;5.236;2023-06-24T06:42:29;5.50;;;4.22;;
68214;SDS011;55036;52.138;5.236;2023-06-24T06:44:56;6.32;;;3.65;;
68214;SDS011;55036;52.138;5.236;2023-06-24T06:47:22;7.22;;;4.22;;
68214;SDS011;55036;52.138;5.236;2023-06-24T06:49:49;4.90;;;3.72;;
68214;SDS011;55036;52.138;5.236;2023-06-24T06:52:16;6.03;;;3.83;;
68214;SDS011;55036;52.138;5.236;2023-06-24T06:54:43;7.68;;;3.60;;
68214;SDS011;55036;52.138;5.236;2023-06-24T06:57:10;4.78;;;3.65;;
68214;SDS011;55036;52.138;5.236;2023-06-24T06:59:37;5.90;;;3.35;;
68214;SDS011;55036;52.138;5.236;2023-06-24T07:02:20;6.03;;;3.90;;
68214;SDS011;55036;52.138;5.236;2023-06-24T07:04:47;5.75;;;3.50;;
68214;SDS011;55036;52.138;5.236;2023-06-24T07:07:14;5.55;;;3.25;;
68214;SDS011;55036;52.138;5.236;2023-06-24T07:09:41;5.03;;;3.53;;
68214;SDS011;55036;52.138;5.236;2023-06-24T07:12:08;5.63;;;3.55;;
68214;SDS011;55036;52.138;5.236;2023-06-24T07:14:35;6.57;;;3.70;;
68214;SDS011;55036;52.138;5.236;2023-06-24T07:17:02;4.55;;;3.60;;
68214;SDS011;55036;52.138;5.236;2023-06-24T07:19:28;5.10;;;3.50;;
68214;SDS011;55036;52.138;5.236;2023-06-24T07:21:55;7.13;;;4.38;;
68214;SDS011;55036;52.138;5.236;2023-06-24T07:24:31;7.75;;;4.55;;
68214;SDS011;55036;52.138;5.236;2023-06-24T07:26:58;6.78;;;4.20;;
68214;SDS011;55036;52.138;5.236;2023-06-24T07:29:24;7.05;;;3.53;;
68214;SDS011;55036;52.138;5.236;2023-06-24T07:31:51;5.35;;;3.40;;
68214;SDS011;55036;52.138;5.236;2023-06-24T07:34:18;5.03;;;3.50;;
68214;SDS011;55036;52.138;5.236;2023-06-24T07:36:45;7.13;;;3.53;;
68214;SDS011;55036;52.138;5.236;2023-06-24T07:39:12;7.20;;;3.10;;
68214;SDS011;55036;52.138;5.236;2023-06-24T07:41:38;6.13;;;3.38;;
68214;SDS011;55036;52.138;5.236;2023-06-24T07:44:06;5.82;;;3.38;;
68214;SDS011;55036;52.138;5.236;2023-06-24T07:46:33;6.45;;;3.25;;
68214;SDS011;55036;52.138;5.236;2023-06-24T07:49:00;6.50;;;3.90;;
68214;SDS011;55036;52.138;5.236;2023-06-24T07:51:27;5.47;;;3.50;;
68214;SDS011;55036;52.138;5.236;2023-06-24T07:53:54;6.63;;;3.40;;
68214;SDS011;55036;52.138;5.236;2023-06-24T07:56:20;7.20;;;4.40;;
68214;SDS011;55036;52.138;5.236;2023-06-24T07:58:47;5.05;;;3.50;;
68214;SDS011;55036;52.138;5.236;2023-06-24T08:01:14;13.70;;;3.95;;
68214;SDS011;55036;52.138;5.236;2023-06-24T08:03:41;6.05;;;4.07;;
68214;SDS011;55036;52.138;5.236;2023-06-24T08:06:08;5.10;;;3.67;;
68214;SDS011;55036;52.138;5.236;2023-06-24T08:08:34;6.53;;;3.67;;
68214;SDS011;55036;52.138;5.236;2023-06-24T08:11:02;7.47;;;3.63;;
68214;SDS011;55036;52.138;5.236;2023-06-24T08:13:29;4.80;;;3.85;;
68214;SDS011;55036;52.138;5.236;2023-06-24T08:15:56;10.98;;;4.00;;
68214;SDS011;55036;52.138;5.236;2023-06-24T08:18:23;6.60;;;3.67;;
68214;SDS011;55036;52.138;5.236;2023-06-24T08:20:50;9.88;;;3.78;;
68214;SDS011;55036;52.138;5.236;2023-06-24T08:23:16;8.85;;;4.43;;
68214;SDS011;55036;52.138;5.236;2023-06-24T08:25:43;6.07;;;3.60;;
68214;SDS011;55036;52.138;5.236;2023-06-24T08:28:10;7.32;;;3.38;;
68214;SDS011;55036;52.138;5.236;2023-06-24T08:30:37;5.25;;;3.40;;
68214;SDS011;55036;52.138;5.236;2023-06-24T08:33:04;4.60;;;3.75;;
68214;SDS011;55036;52.138;5.236;2023-06-24T08:35:30;7.45;;;3.80;;
68214;SDS011;55036;52.138;5.236;2023-06-24T08:37:57;4.55;;;3.28;;
68214;SDS011;55036;52.138;5.236;2023-06-24T08:40:24;5.70;;;4.25;;
68214;SDS011;55036;52.138;5.236;2023-06-24T08:42:51;6.93;;;3.60;;
68214;SDS011;55036;52.138;5.236;2023-06-24T08:45:18;5.68;;;4.28;;
68214;SDS011;55036;52.138;5.236;2023-06-24T08:47:44;7.65;;;4.07;;
68214;SDS011;55036;52.138;5.236;2023-06-24T08:50:14;12.48;;;4.57;;
68214;SDS011;55036;52.138;5.236;2023-06-24T08:52:43;5.07;;;3.63;;
68214;SDS011;55036;52.138;5.236;2023-06-24T08:55:16;5.25;;;3.45;;
68214;SDS011;55036;52.138;5.236;2023-06-24T08:57:47;6.13;;;3.70;;
68214;SDS011;55036;52.138;5.236;2023-06-24T09:00:14;5.97;;;3.80;;
68214;SDS011;55036;52.138;5.236;2023-06-24T09:02:41;4.93;;;3.70;;
68214;SDS011;55036;52.138;5.236;2023-06-24T09:05:09;8.20;;;4.35;;
68214;SDS011;55036;52.138;5.236;2023-06-24T09:07:36;5.60;;;3.65;;
68214;SDS011;55036;52.138;5.236;2023-06-24T09:10:03;3.95;;;3.55;;
68214;SDS011;55036;52.138;5.236;2023-06-24T09:12:33;7.93;;;3.80;;
68214;SDS011;55036;52.138;5.236;2023-06-24T09:15:01;6.65;;;4.55;;
68214;SDS011;55036;52.138;5.236;2023-06-24T09:17:29;7.10;;;4.15;;
68214;SDS011;55036;52.138;5.236;2023-06-24T09:20:03;8.82;;;4.55;;
68214;SDS011;55036;52.138;5.236;2023-06-24T09:22:33;6.28;;;4.30;;
68214;SDS011;55036;52.138;5.236;2023-06-24T09:25:00;6.47;;;4.20;;
68214;SDS011;55036;52.138;5.236;2023-06-24T09:27:30;6.68;;;5.60;;
68214;SDS011;55036;52.138;5.236;2023-06-24T09:29:58;6.30;;;4.40;;
68214;SDS011;55036;52.138;5.236;2023-06-24T09:32:31;7.18;;;4.80;;
68214;SDS011;55036;52.138;5.236;2023-06-24T09:34:58;5.82;;;4.35;;
68214;SDS011;55036;52.138;5.236;2023-06-24T09:37:29;9.40;;;4.82;;
68214;SDS011;55036;52.138;5.236;2023-06-24T09:39:58;6.90;;;4.55;;
68214;SDS011;55036;52.138;5.236;2023-06-24T09:42:25;7.00;;;5.22;;
68214;SDS011;55036;52.138;5.236;2023-06-24T09:44:55;7.78;;;5.60;;
68214;SDS011;55036;52.138;5.236;2023-06-24T09:47:22;6.77;;;5.23;;
68214;SDS011;55036;52.138;5.236;2023-06-24T09:49:53;6.90;;;4.80;;
68214;SDS011;55036;52.138;5.236;2023-06-24T09:52:20;6.88;;;4.97;;
68214;SDS011;55036;52.138;5.236;2023-06-24T09:54:50;6.22;;;4.65;;
68214;SDS011;55036;52.138;5.236;2023-06-24T09:57:24;6.05;;;4.50;;
68214;SDS011;55036;52.138;5.236;2023-06-24T09:59:55;8.25;;;5.00;;
68214;SDS011;55036;52.138;5.236;2023-06-24T10:02:22;6.35;;;4.78;;
68214;SDS011;55036;52.138;5.236;2023-06-24T10:04:49;8.27;;;5.05;;
68214;SDS011;55036;52.138;5.236;2023-06-24T10:07:17;8.48;;;5.55;;
68214;SDS011;55036;52.138;5.236;2023-06-24T10:09:45;9.73;;;6.68;;
68214;SDS011;55036;52.138;5.236;2023-06-24T10:12:12;7.22;;;5.85;;
68214;SDS011;55036;52.138;5.236;2023-06-24T10:14:39;9.27;;;6.78;;
68214;SDS011;55036;52.138;5.236;2023-06-24T10:17:06;7.32;;;5.25;;
68214;SDS011;55036;52.138;5.236;2023-06-24T10:19:39;8.75;;;5.50;;
68214;SDS011;55036;52.138;5.236;2023-06-24T10:22:08;8.32;;;4.50;;
68214;SDS011;55036;52.138;5.236;2023-06-24T10:24:37;10.93;;;5.65;;
68214;SDS011;55036;52.138;5.236;2023-06-24T10:27:07;5.20;;;4.53;;
68214;SDS011;55036;52.138;5.236;2023-06-24T10:29:38;7.05;;;5.85;;
68214;SDS011;55036;52.138;5.236;2023-06-24T10:32:10;7.50;;;5.68;;
68214;SDS011;55036;52.138;5.236;2023-06-24T10:37:04;10.75;;;7.03;;
68214;SDS011;55036;52.138;5.236;2023-06-24T10:44:57;12.60;;;5.72;;
68214;SDS011;55036;52.138;5.236;2023-06-24T10:47:26;14.40;;;5.80;;
68214;SDS011;55036;52.138;5.236;2023-06-24T10:49:54;8.70;;;5.72;;
68214;SDS011;55036;52.138;5.236;2023-06-24T10:52:21;7.72;;;6.47;;
68214;SDS011;55036;52.138;5.236;2023-06-24T10:54:49;19.50;;;6.97;;
68214;SDS011;55036;52.138;5.236;2023-06-24T10:57:20;15.27;;;7.22;;
68214;SDS011;55036;52.138;5.236;2023-06-24T10:59:55;11.93;;;6.20;;
68214;SDS011;55036;52.138;5.236;2023-06-24T11:02:23;8.93;;;4.90;;
68214;SDS011;55036;52.138;5.236;2023-06-24T11:04:52;7.63;;;5.88;;
68214;SDS011;55036;52.138;5.236;2023-06-24T11:07:25;9.73;;;6.38;;
68214;SDS011;55036;52.138;5.236;2023-06-24T11:09:58;8.20;;;5.97;;
68214;SDS011;55036;52.138;5.236;2023-06-24T11:12:28;7.30;;;5.50;;
68214;SDS011;55036;52.138;5.236;2023-06-24T11:14:57;8.77;;;5.65;;
68214;SDS011;55036;52.138;5.236;2023-06-24T11:17:25;7.60;;;5.90;;
68214;SDS011;55036;52.138;5.236;2023-06-24T11:19:56;6.50;;;5.80;;
68214;SDS011;55036;52.138;5.236;2023-06-24T11:22:24;8.13;;;5.20;;
68214;SDS011;55036;52.138;5.236;2023-06-24T11:24:52;7.03;;;5.15;;
68214;SDS011;55036;52.138;5.236;2023-06-24T11:27:23;8.93;;;6.50;;
68214;SDS011;55036;52.138;5.236;2023-06-24T11:29:51;15.07;;;6.22;;
68214;SDS011;55036;52.138;5.236;2023-06-24T11:32:19;6.05;;;4.88;;
68214;SDS011;55036;52.138;5.236;2023-06-24T11:34:47;7.00;;;5.35;;
68214;SDS011;55036;52.138;5.236;2023-06-24T11:37:15;7.03;;;4.80;;
68214;SDS011;55036;52.138;5.236;2023-06-24T11:39:44;9.02;;;5.20;;
68214;SDS011;55036;52.138;5.236;2023-06-24T11:42:11;7.85;;;5.45;;
68214;SDS011;55036;52.138;5.236;2023-06-24T11:44:43;7.70;;;5.45;;
68214;SDS011;55036;52.138;5.236;2023-06-24T11:47:10;8.38;;;5.50;;
68214;SDS011;55036;52.138;5.236;2023-06-24T11:49:47;8.25;;;4.72;;
68214;SDS011;55036;52.138;5.236;2023-06-24T11:52:42;5.32;;;4.40;;
68214;SDS011;55036;52.138;5.236;2023-06-24T12:00:26;6.45;;;4.38;;
68214;SDS011;55036;52.138;5.236;2023-06-24T12:02:58;5.18;;;3.80;;
68214;SDS011;55036;52.138;5.236;2023-06-24T12:05:30;8.98;;;5.25;;
68214;SDS011;55036;52.138;5.236;2023-06-24T12:08:02;18.60;;;6.20;;
68214;SDS011;55036;52.138;5.236;2023-06-24T12:10:33;13.23;;;4.88;;
68214;SDS011;55036;52.138;5.236;2023-06-24T12:13:02;8.27;;;4.30;;
68214;SDS011;55036;52.138;5.236;2023-06-24T12:15:30;7.07;;;4.13;;
68214;SDS011;55036;52.138;5.236;2023-06-24T12:17:56;7.78;;;4.82;;
68214;SDS011;55036;52.138;5.236;2023-06-24T12:20:24;9.77;;;5.05;;
68214;SDS011;55036;52.138;5.236;2023-06-24T12:23:02;14.35;;;5.68;;
68214;SDS011;55036;52.138;5.236;2023-06-24T12:25:32;7.63;;;4.90;;
68214;SDS011;55036;52.138;5.236;2023-06-24T12:27:59;6.78;;;4.53;;
68214;SDS011;55036;52.138;5.236;2023-06-24T12:30:26;12.35;;;5.72;;
68214;SDS011;55036;52.138;5.236;2023-06-24T12:32:53;7.05;;;5.20;;
68214;SDS011;55036;52.138;5.236;2023-06-24T12:35:21;6.28;;;4.53;;
68214;SDS011;55036;52.138;5.236;2023-06-24T12:40:18;6.10;;;4.70;;
68214;SDS011;55036;52.138;5.236;2023-06-24T12:42:45;6.53;;;4.38;;
68214;SDS011;55036;52.138;5.236;2023-06-24T12:45:12;5.18;;;4.03;;
68214;SDS011;55036;52.138;5.236;2023-06-24T12:47:39;7.30;;;4.20;;
68214;SDS011;55036;52.138;5.236;2023-06-24T12:50:06;7.40;;;4.97;;
68214;SDS011;55036;52.138;5.236;2023-06-24T12:52:37;5.13;;;3.90;;
68214;SDS011;55036;52.138;5.236;2023-06-24T12:55:05;5.15;;;4.28;;
68214;SDS011;55036;52.138;5.236;2023-06-24T12:57:34;7.88;;;5.50;;
68214;SDS011;55036;52.138;5.236;2023-06-24T13:00:02;5.95;;;4.00;;
68214;SDS011;55036;52.138;5.236;2023-06-24T13:02:31;8.60;;;4.33;;
68214;SDS011;55036;52.138;5.236;2023-06-24T13:04:58;7.00;;;4.68;;
68214;SDS011;55036;52.138;5.236;2023-06-24T13:07:25;5.25;;;4.10;;
68214;SDS011;55036;52.138;5.236;2023-06-24T13:09:52;7.60;;;5.38;;
68214;SDS011;55036;52.138;5.236;2023-06-24T13:12:19;6.18;;;4.47;;
68214;SDS011;55036;52.138;5.236;2023-06-24T13:14:46;6.03;;;4.50;;
68214;SDS011;55036;52.138;5.236;2023-06-24T13:17:13;5.85;;;4.30;;
68214;SDS011;55036;52.138;5.236;2023-06-24T13:19:40;4.88;;;4.38;;
68214;SDS011;55036;52.138;5.236;2023-06-24T13:22:06;5.43;;;3.85;;
68214;SDS011;55036;52.138;5.236;2023-06-24T13:24:33;5.53;;;3.97;;
68214;SDS011;55036;52.138;5.236;2023-06-24T13:27:00;5.95;;;4.22;;
68214;SDS011;55036;52.138;5.236;2023-06-24T13:29:27;7.03;;;4.53;;
68214;SDS011;55036;52.138;5.236;2023-06-24T13:31:53;7.55;;;4.45;;
68214;SDS011;55036;52.138;5.236;2023-06-24T13:34:20;5.13;;;4.10;;
68214;SDS011;55036;52.138;5.236;2023-06-24T13:36:47;7.03;;;4.63;;
68214;SDS011;55036;52.138;5.236;2023-06-24T13:39:14;6.50;;;4.75;;
68214;SDS011;55036;52.138;5.236;2023-06-24T13:41:46;9.07;;;4.95;;
68214;SDS011;55036;52.138;5.236;2023-06-24T13:44:13;8.65;;;5.28;;
68214;SDS011;55036;52.138;5.236;2023-06-24T13:46:40;8.63;;;6.18;;
68214;SDS011;55036;52.138;5.236;2023-06-24T13:49:07;5.13;;;3.95;;
68214;SDS011;55036;52.138;5.236;2023-06-24T13:51:34;7.57;;;4.43;;
68214;SDS011;55036;52.138;5.236;2023-06-24T13:54:00;8.55;;;5.30;;
68214;SDS011;55036;52.138;5.236;2023-06-24T13:56:27;11.52;;;4.70;;
68214;SDS011;55036;52.138;5.236;2023-06-24T13:58:55;9.25;;;6.05;;
68214;SDS011;55036;52.138;5.236;2023-06-24T14:01:22;8.18;;;5.53;;
68214;SDS011;55036;52.138;5.236;2023-06-24T14:03:50;7.18;;;4.95;;
68214;SDS011;55036;52.138;5.236;2023-06-24T14:06:18;7.00;;;4.97;;
68214;SDS011;55036;52.138;5.236;2023-06-24T14:08:46;5.18;;;4.22;;
68214;SDS011;55036;52.138;5.236;2023-06-24T14:11:13;6.90;;;3.85;;
68214;SDS011;55036;52.138;5.236;2023-06-24T14:13:40;4.40;;;4.00;;
68214;SDS011;55036;52.138;5.236;2023-06-24T14:16:07;6.65;;;4.32;;
68214;SDS011;55036;52.138;5.236;2023-06-24T14:18:34;7.07;;;4.50;;
68214;SDS011;55036;52.138;5.236;2023-06-24T14:21:02;7.38;;;5.05;;
68214;SDS011;55036;52.138;5.236;2023-06-24T14:23:30;7.38;;;5.15;;
68214;SDS011;55036;52.138;5.236;2023-06-24T14:25:58;8.43;;;4.47;;
68214;SDS011;55036;52.138;5.236;2023-06-24T14:28:25;5.18;;;4.00;;
68214;SDS011;55036;52.138;5.236;2023-06-24T14:30:52;5.20;;;4.35;;
68214;SDS011;55036;52.138;5.236;2023-06-24T14:33:19;6.07;;;4.43;;
68214;SDS011;55036;52.138;5.236;2023-06-24T14:35:46;10.23;;;4.15;;
68214;SDS011;55036;52.138;5.236;2023-06-24T14:38:13;6.15;;;4.43;;
68214;SDS011;55036;52.138;5.236;2023-06-24T14:40:40;5.60;;;4.75;;
68214;SDS011;55036;52.138;5.236;2023-06-24T14:43:06;7.20;;;4.60;;
68214;SDS011;55036;52.138;5.236;2023-06-24T14:45:33;7.05;;;4.72;;
68214;SDS011;55036;52.138;5.236;2023-06-24T14:48:00;5.45;;;4.07;;
68214;SDS011;55036;52.138;5.236;2023-06-24T14:50:27;7.40;;;4.65;;
68214;SDS011;55036;52.138;5.236;2023-06-24T14:52:53;7.60;;;4.03;;
68214;SDS011;55036;52.138;5.236;2023-06-24T14:55:20;4.43;;;3.95;;
68214;SDS011;55036;52.138;5.236;2023-06-24T14:57:47;7.10;;;4.53;;
68214;SDS011;55036;52.138;5.236;2023-06-24T15:00:13;5.43;;;4.13;;
68214;SDS011;55036;52.138;5.236;2023-06-24T15:02:41;5.68;;;4.10;;
68214;SDS011;55036;52.138;5.236;2023-06-24T15:05:08;6.22;;;4.15;;
68214;SDS011;55036;52.138;5.236;2023-06-24T15:07:35;5.72;;;3.83;;
68214;SDS011;55036;52.138;5.236;2023-06-24T15:10:04;6.63;;;4.30;;
68214;SDS011;55036;52.138;5.236;2023-06-24T15:12:32;5.40;;;4.35;;
68214;SDS011;55036;52.138;5.236;2023-06-24T15:15:00;5.43;;;3.97;;
68214;SDS011;55036;52.138;5.236;2023-06-24T15:17:27;7.35;;;5.10;;
68214;SDS011;55036;52.138;5.236;2023-06-24T15:19:55;6.72;;;5.05;;
68214;SDS011;55036;52.138;5.236;2023-06-24T15:22:22;5.60;;;5.03;;
68214;SDS011;55036;52.138;5.236;2023-06-24T15:24:49;5.35;;;3.95;;
68214;SDS011;55036;52.138;5.236;2023-06-24T15:27:16;8.10;;;4.10;;
68214;SDS011;55036;52.138;5.236;2023-06-24T15:29:43;5.07;;;4.13;;
68214;SDS011;55036;52.138;5.236;2023-06-24T15:32:10;5.78;;;4.20;;
68214;SDS011;55036;52.138;5.236;2023-06-24T15:34:37;6.03;;;4.13;;
68214;SDS011;55036;52.138;5.236;2023-06-24T15:37:04;5.85;;;4.80;;
68214;SDS011;55036;52.138;5.236;2023-06-24T15:39:31;7.88;;;4.63;;
68214;SDS011;55036;52.138;5.236;2023-06-24T15:41:58;5.80;;;4.15;;
68214;SDS011;55036;52.138;5.236;2023-06-24T15:44:25;5.78;;;4.32;;
68214;SDS011;55036;52.138;5.236;2023-06-24T15:46:52;6.90;;;4.50;;
68214;SDS011;55036;52.138;5.236;2023-06-24T15:49:19;6.60;;;4.07;;
68214;SDS011;55036;52.138;5.236;2023-06-24T15:51:45;7.13;;;4.30;;